sensor_id;sensor_type;location;lat;lon;timestamp;temperature;humidity
25074;DHT22;13066;52.042;5.648;2022-07-23T00:00:34;18.70;95.30
25074;DHT22;13066;52.042;5.648;2022-07-23T00:03:05;18.70;95.30
25074;DHT22;13066;52.042;5.648;2022-07-23T00:05:33;18.60;95.30
25074;DHT22;13066;52.042;5.648;2022-07-23T00:08:04;18.60;95.30
25074;DHT22;13066;52.042;5.648;2022-07-23T00:10:40;18.60;95.50
25074;DHT22;13066;52.042;5.648;2022-07-23T00:13:09;18.50;95.60
25074;DHT22;13066;52.042;5.648;2022-07-23T00:15:38;18.50;95.60
25074;DHT22;13066;52.042;5.648;2022-07-23T00:18:06;18.40;95.70
25074;DHT22;13066;52.042;5.648;2022-07-23T00:20:34;18.40;95.80
25074;DHT22;13066;52.042;5.648;2022-07-23T00:23:02;18.40;95.90
25074;DHT22;13066;52.042;5.648;2022-07-23T00:25:30;18.40;95.90
25074;DHT22;13066;52.042;5.648;2022-07-23T00:27:59;18.30;96.00
25074;DHT22;13066;52.042;5.648;2022-07-23T00:30:30;18.30;96.40
25074;DHT22;13066;52.042;5.648;2022-07-23T00:33:00;18.30;96.50
25074;DHT22;13066;52.042;5.648;2022-07-23T00:35:31;18.30;96.20
25074;DHT22;13066;52.042;5.648;2022-07-23T00:38:01;18.20;96.20
25074;DHT22;13066;52.042;5.648;2022-07-23T00:40:31;18.20;96.30
25074;DHT22;13066;52.042;5.648;2022-07-23T00:42:59;18.10;96.30
25074;DHT22;13066;52.042;5.648;2022-07-23T00:45:28;18.10;96.50
25074;DHT22;13066;52.042;5.648;2022-07-23T00:47:57;18.10;96.60
25074;DHT22;13066;52.042;5.648;2022-07-23T00:50:25;18.00;96.70
25074;DHT22;13066;52.042;5.648;2022-07-23T00:52:53;18.00;96.70
25074;DHT22;13066;52.042;5.648;2022-07-23T00:55:22;18.00;96.80
25074;DHT22;13066;52.042;5.648;2022-07-23T00:57:51;18.00;96.90
25074;DHT22;13066;52.042;5.648;2022-07-23T01:00:24;18.00;97.00
25074;DHT22;13066;52.042;5.648;2022-07-23T01:02:57;18.00;97.00
25074;DHT22;13066;52.042;5.648;2022-07-23T01:05:25;18.00;97.00
25074;DHT22;13066;52.042;5.648;2022-07-23T01:07:53;17.90;97.10
25074;DHT22;13066;52.042;5.648;2022-07-23T01:10:23;17.90;97.10
25074;DHT22;13066;52.042;5.648;2022-07-23T01:13:02;17.90;97.20
25074;DHT22;13066;52.042;5.648;2022-07-23T01:15:31;17.80;97.20
25074;DHT22;13066;52.042;5.648;2022-07-23T01:18:01;17.80;97.30
25074;DHT22;13066;52.042;5.648;2022-07-23T01:20:30;17.80;97.40
25074;DHT22;13066;52.042;5.648;2022-07-23T01:23:00;17.80;97.40
25074;DHT22;13066;52.042;5.648;2022-07-23T01:25:28;17.80;97.50
25074;DHT22;13066;52.042;5.648;2022-07-23T01:27:56;17.80;97.50
25074;DHT22;13066;52.042;5.648;2022-07-23T01:30:24;17.80;97.60
25074;DHT22;13066;52.042;5.648;2022-07-23T01:32:52;17.80;97.50
25074;DHT22;13066;52.042;5.648;2022-07-23T01:35:20;17.80;97.60
25074;DHT22;13066;52.042;5.648;2022-07-23T01:37:49;17.70;97.60
25074;DHT22;13066;52.042;5.648;2022-07-23T01:40:18;17.80;97.70
25074;DHT22;13066;52.042;5.648;2022-07-23T01:42:48;17.70;97.70
25074;DHT22;13066;52.042;5.648;2022-07-23T01:45:16;17.70;97.60
25074;DHT22;13066;52.042;5.648;2022-07-23T01:47:45;17.70;97.70
25074;DHT22;13066;52.042;5.648;2022-07-23T01:50:13;17.70;98.10
25074;DHT22;13066;52.042;5.648;2022-07-23T01:52:41;17.70;97.80
25074;DHT22;13066;52.042;5.648;2022-07-23T01:55:09;17.70;97.80
25074;DHT22;13066;52.042;5.648;2022-07-23T01:57:46;17.80;97.80
25074;DHT22;13066;52.042;5.648;2022-07-23T02:00:15;17.70;97.80
25074;DHT22;13066;52.042;5.648;2022-07-23T02:02:43;17.70;97.80
25074;DHT22;13066;52.042;5.648;2022-07-23T02:05:11;17.70;97.80
25074;DHT22;13066;52.042;5.648;2022-07-23T02:07:39;17.60;97.80
25074;DHT22;13066;52.042;5.648;2022-07-23T02:10:08;17.60;98.20
25074;DHT22;13066;52.042;5.648;2022-07-23T02:12:36;17.60;97.80
25074;DHT22;13066;52.042;5.648;2022-07-23T02:15:06;17.60;97.80
25074;DHT22;13066;52.042;5.648;2022-07-23T02:17:35;17.60;97.80
25074;DHT22;13066;52.042;5.648;2022-07-23T02:20:05;17.50;97.80
25074;DHT22;13066;52.042;5.648;2022-07-23T02:22:33;17.50;97.80
25074;DHT22;13066;52.042;5.648;2022-07-23T02:25:02;17.50;97.80
25074;DHT22;13066;52.042;5.648;2022-07-23T02:27:30;17.50;97.80
25074;DHT22;13066;52.042;5.648;2022-07-23T02:29:58;17.50;97.80
25074;DHT22;13066;52.042;5.648;2022-07-23T02:32:28;17.50;97.90
25074;DHT22;13066;52.042;5.648;2022-07-23T02:34:56;17.40;97.80
25074;DHT22;13066;52.042;5.648;2022-07-23T02:37:24;17.40;97.90
25074;DHT22;13066;52.042;5.648;2022-07-23T02:39:52;17.40;97.90
25074;DHT22;13066;52.042;5.648;2022-07-23T02:42:21;17.40;98.00
25074;DHT22;13066;52.042;5.648;2022-07-23T02:44:50;17.40;98.00
25074;DHT22;13066;52.042;5.648;2022-07-23T02:47:18;17.40;98.00
25074;DHT22;13066;52.042;5.648;2022-07-23T02:49:48;17.40;98.00
25074;DHT22;13066;52.042;5.648;2022-07-23T02:52:16;17.40;98.00
25074;DHT22;13066;52.042;5.648;2022-07-23T02:54:44;17.40;98.00
25074;DHT22;13066;52.042;5.648;2022-07-23T02:57:12;17.40;98.10
25074;DHT22;13066;52.042;5.648;2022-07-23T02:59:40;17.30;98.10
25074;DHT22;13066;52.042;5.648;2022-07-23T03:02:08;17.30;98.10
25074;DHT22;13066;52.042;5.648;2022-07-23T03:04:36;17.30;98.10
25074;DHT22;13066;52.042;5.648;2022-07-23T03:07:05;17.30;98.10
25074;DHT22;13066;52.042;5.648;2022-07-23T03:09:33;17.30;98.10
25074;DHT22;13066;52.042;5.648;2022-07-23T03:12:02;17.30;98.10
25074;DHT22;13066;52.042;5.648;2022-07-23T03:14:33;17.30;98.10
25074;DHT22;13066;52.042;5.648;2022-07-23T03:17:01;17.20;98.00
25074;DHT22;13066;52.042;5.648;2022-07-23T03:19:29;17.20;98.10
25074;DHT22;13066;52.042;5.648;2022-07-23T03:21:57;17.20;98.20
25074;DHT22;13066;52.042;5.648;2022-07-23T03:24:27;17.20;98.20
25074;DHT22;13066;52.042;5.648;2022-07-23T03:27:16;17.20;98.20
25074;DHT22;13066;52.042;5.648;2022-07-23T03:29:44;17.10;98.20
25074;DHT22;13066;52.042;5.648;2022-07-23T03:32:12;17.10;98.20
25074;DHT22;13066;52.042;5.648;2022-07-23T03:34:40;17.10;98.20
25074;DHT22;13066;52.042;5.648;2022-07-23T03:37:08;17.10;98.20
25074;DHT22;13066;52.042;5.648;2022-07-23T03:39:38;17.10;98.20
25074;DHT22;13066;52.042;5.648;2022-07-23T03:42:06;17.10;98.30
25074;DHT22;13066;52.042;5.648;2022-07-23T03:44:35;17.00;98.20
25074;DHT22;13066;52.042;5.648;2022-07-23T03:47:05;17.00;98.20
25074;DHT22;13066;52.042;5.648;2022-07-23T03:49:33;17.00;98.20
25074;DHT22;13066;52.042;5.648;2022-07-23T03:52:02;17.00;98.30
25074;DHT22;13066;52.042;5.648;2022-07-23T03:54:30;16.90;98.40
25074;DHT22;13066;52.042;5.648;2022-07-23T03:56:59;16.90;98.40
25074;DHT22;13066;52.042;5.648;2022-07-23T03:59:29;16.90;98.40
25074;DHT22;13066;52.042;5.648;2022-07-23T04:01:57;16.90;98.40
25074;DHT22;13066;52.042;5.648;2022-07-23T04:04:26;16.90;98.50
25074;DHT22;13066;52.042;5.648;2022-07-23T04:06:54;16.90;98.50
25074;DHT22;13066;52.042;5.648;2022-07-23T04:09:22;16.80;98.50
25074;DHT22;13066;52.042;5.648;2022-07-23T04:11:50;16.80;98.60
25074;DHT22;13066;52.042;5.648;2022-07-23T04:14:19;16.80;98.60
25074;DHT22;13066;52.042;5.648;2022-07-23T04:16:47;16.80;98.70
25074;DHT22;13066;52.042;5.648;2022-07-23T04:19:15;16.80;98.80
25074;DHT22;13066;52.042;5.648;2022-07-23T04:21:44;16.80;98.80
25074;DHT22;13066;52.042;5.648;2022-07-23T04:24:12;16.80;98.80
25074;DHT22;13066;52.042;5.648;2022-07-23T04:26:41;16.80;98.80
25074;DHT22;13066;52.042;5.648;2022-07-23T04:29:09;16.80;98.90
25074;DHT22;13066;52.042;5.648;2022-07-23T04:31:38;16.80;98.90
25074;DHT22;13066;52.042;5.648;2022-07-23T04:34:06;16.80;98.90
25074;DHT22;13066;52.042;5.648;2022-07-23T04:36:34;16.80;99.20
25074;DHT22;13066;52.042;5.648;2022-07-23T04:39:03;16.80;98.90
25074;DHT22;13066;52.042;5.648;2022-07-23T04:41:31;16.80;99.00
25074;DHT22;13066;52.042;5.648;2022-07-23T04:43:59;16.80;99.30
25074;DHT22;13066;52.042;5.648;2022-07-23T04:46:27;16.80;99.00
25074;DHT22;13066;52.042;5.648;2022-07-23T04:48:57;16.80;99.10
25074;DHT22;13066;52.042;5.648;2022-07-23T04:51:26;16.80;99.10
25074;DHT22;13066;52.042;5.648;2022-07-23T04:53:55;16.80;99.20
25074;DHT22;13066;52.042;5.648;2022-07-23T04:56:23;16.80;99.20
25074;DHT22;13066;52.042;5.648;2022-07-23T04:58:51;16.80;99.20
25074;DHT22;13066;52.042;5.648;2022-07-23T05:01:19;16.80;99.30
25074;DHT22;13066;52.042;5.648;2022-07-23T05:03:47;16.80;99.30
25074;DHT22;13066;52.042;5.648;2022-07-23T05:06:17;16.80;99.40
25074;DHT22;13066;52.042;5.648;2022-07-23T05:08:45;16.80;99.40
25074;DHT22;13066;52.042;5.648;2022-07-23T05:11:13;16.90;99.50
25074;DHT22;13066;52.042;5.648;2022-07-23T05:13:41;16.90;99.50
25074;DHT22;13066;52.042;5.648;2022-07-23T05:16:09;16.90;99.50
25074;DHT22;13066;52.042;5.648;2022-07-23T05:18:37;16.90;99.50
25074;DHT22;13066;52.042;5.648;2022-07-23T05:21:05;17.00;99.50
25074;DHT22;13066;52.042;5.648;2022-07-23T05:23:35;16.90;99.50
25074;DHT22;13066;52.042;5.648;2022-07-23T05:26:03;17.00;99.50
25074;DHT22;13066;52.042;5.648;2022-07-23T05:28:31;17.00;99.50
25074;DHT22;13066;52.042;5.648;2022-07-23T05:30:59;17.00;99.50
25074;DHT22;13066;52.042;5.648;2022-07-23T05:33:27;17.10;99.50
25074;DHT22;13066;52.042;5.648;2022-07-23T05:36:00;17.10;99.50
25074;DHT22;13066;52.042;5.648;2022-07-23T05:38:28;17.10;99.50
25074;DHT22;13066;52.042;5.648;2022-07-23T05:40:58;17.10;99.80
25074;DHT22;13066;52.042;5.648;2022-07-23T05:43:26;17.20;99.50
25074;DHT22;13066;52.042;5.648;2022-07-23T05:45:55;17.20;99.40
25074;DHT22;13066;52.042;5.648;2022-07-23T05:48:23;17.20;99.40
25074;DHT22;13066;52.042;5.648;2022-07-23T05:50:51;17.30;99.50
25074;DHT22;13066;52.042;5.648;2022-07-23T05:53:20;17.30;99.50
25074;DHT22;13066;52.042;5.648;2022-07-23T05:55:48;17.30;99.50
25074;DHT22;13066;52.042;5.648;2022-07-23T05:58:17;17.40;99.50
25074;DHT22;13066;52.042;5.648;2022-07-23T06:00:46;17.40;99.40
25074;DHT22;13066;52.042;5.648;2022-07-23T06:03:14;17.50;99.40
25074;DHT22;13066;52.042;5.648;2022-07-23T06:05:42;17.50;99.40
25074;DHT22;13066;52.042;5.648;2022-07-23T06:08:10;17.60;99.30
25074;DHT22;13066;52.042;5.648;2022-07-23T06:10:38;17.60;99.30
25074;DHT22;13066;52.042;5.648;2022-07-23T06:13:06;17.70;99.80
25074;DHT22;13066;52.042;5.648;2022-07-23T06:15:36;17.70;99.40
25074;DHT22;13066;52.042;5.648;2022-07-23T06:18:04;17.70;99.40
25074;DHT22;13066;52.042;5.648;2022-07-23T06:20:32;17.80;99.20
25074;DHT22;13066;52.042;5.648;2022-07-23T06:23:01;17.80;99.00
25074;DHT22;13066;52.042;5.648;2022-07-23T06:25:29;17.80;98.90
25074;DHT22;13066;52.042;5.648;2022-07-23T06:27:58;17.90;98.90
25074;DHT22;13066;52.042;5.648;2022-07-23T06:30:27;17.90;98.80
25074;DHT22;13066;52.042;5.648;2022-07-23T06:32:56;17.90;98.60
25074;DHT22;13066;52.042;5.648;2022-07-23T06:35:25;18.00;98.50
25074;DHT22;13066;52.042;5.648;2022-07-23T06:37:53;18.00;98.40
25074;DHT22;13066;52.042;5.648;2022-07-23T06:40:22;18.00;98.20
25074;DHT22;13066;52.042;5.648;2022-07-23T06:42:50;18.10;98.20
25074;DHT22;13066;52.042;5.648;2022-07-23T06:45:18;18.10;98.10
25074;DHT22;13066;52.042;5.648;2022-07-23T06:47:47;18.10;98.00
25074;DHT22;13066;52.042;5.648;2022-07-23T06:50:17;18.20;98.00
25074;DHT22;13066;52.042;5.648;2022-07-23T06:52:45;18.20;97.90
25074;DHT22;13066;52.042;5.648;2022-07-23T06:55:13;18.20;97.80
25074;DHT22;13066;52.042;5.648;2022-07-23T06:57:41;18.20;97.70
25074;DHT22;13066;52.042;5.648;2022-07-23T07:00:10;18.30;97.80
25074;DHT22;13066;52.042;5.648;2022-07-23T07:02:38;18.30;97.70
25074;DHT22;13066;52.042;5.648;2022-07-23T07:05:07;18.30;97.50
25074;DHT22;13066;52.042;5.648;2022-07-23T07:07:37;18.40;97.50
25074;DHT22;13066;52.042;5.648;2022-07-23T07:10:05;18.40;97.40
25074;DHT22;13066;52.042;5.648;2022-07-23T07:12:41;18.50;97.40
25074;DHT22;13066;52.042;5.648;2022-07-23T07:15:09;18.50;97.40
25074;DHT22;13066;52.042;5.648;2022-07-23T07:17:38;18.50;97.20
25074;DHT22;13066;52.042;5.648;2022-07-23T07:20:07;18.60;97.20
25074;DHT22;13066;52.042;5.648;2022-07-23T07:22:37;18.60;97.10
25074;DHT22;13066;52.042;5.648;2022-07-23T07:25:06;18.60;97.00
25074;DHT22;13066;52.042;5.648;2022-07-23T07:27:34;18.70;96.70
25074;DHT22;13066;52.042;5.648;2022-07-23T07:30:03;18.70;96.60
25074;DHT22;13066;52.042;5.648;2022-07-23T07:32:32;18.80;96.50
25074;DHT22;13066;52.042;5.648;2022-07-23T07:35:20;18.80;96.00
25074;DHT22;13066;52.042;5.648;2022-07-23T07:37:49;18.80;95.90
25074;DHT22;13066;52.042;5.648;2022-07-23T07:40:18;18.90;96.00
25074;DHT22;13066;52.042;5.648;2022-07-23T07:42:48;19.00;95.70
25074;DHT22;13066;52.042;5.648;2022-07-23T07:45:19;19.10;95.50
25074;DHT22;13066;52.042;5.648;2022-07-23T07:47:47;19.10;95.40
25074;DHT22;13066;52.042;5.648;2022-07-23T07:50:15;19.10;95.20
25074;DHT22;13066;52.042;5.648;2022-07-23T07:52:44;19.10;95.00
25074;DHT22;13066;52.042;5.648;2022-07-23T07:55:13;19.20;95.00
25074;DHT22;13066;52.042;5.648;2022-07-23T07:57:43;19.20;95.10
25074;DHT22;13066;52.042;5.648;2022-07-23T08:00:16;19.30;95.00
25074;DHT22;13066;52.042;5.648;2022-07-23T08:02:45;19.30;95.00
25074;DHT22;13066;52.042;5.648;2022-07-23T08:05:19;19.30;95.00
25074;DHT22;13066;52.042;5.648;2022-07-23T08:07:54;19.40;95.20
25074;DHT22;13066;52.042;5.648;2022-07-23T08:10:24;19.50;95.00
25074;DHT22;13066;52.042;5.648;2022-07-23T08:12:56;19.50;94.80
25074;DHT22;13066;52.042;5.648;2022-07-23T08:15:25;19.60;94.70
25074;DHT22;13066;52.042;5.648;2022-07-23T08:17:55;19.60;94.60
25074;DHT22;13066;52.042;5.648;2022-07-23T08:20:25;19.70;94.50
25074;DHT22;13066;52.042;5.648;2022-07-23T08:22:56;19.80;93.70
25074;DHT22;13066;52.042;5.648;2022-07-23T08:25:28;19.80;93.30
25074;DHT22;13066;52.042;5.648;2022-07-23T08:27:57;19.80;93.20
25074;DHT22;13066;52.042;5.648;2022-07-23T08:30:25;19.80;93.20
25074;DHT22;13066;52.042;5.648;2022-07-23T08:32:55;19.80;93.30
25074;DHT22;13066;52.042;5.648;2022-07-23T08:35:26;19.90;93.30
25074;DHT22;13066;52.042;5.648;2022-07-23T08:37:55;19.90;92.80
25074;DHT22;13066;52.042;5.648;2022-07-23T08:40:27;19.90;92.40
25074;DHT22;13066;52.042;5.648;2022-07-23T08:42:56;19.90;92.10
25074;DHT22;13066;52.042;5.648;2022-07-23T08:45:25;19.90;91.80
25074;DHT22;13066;52.042;5.648;2022-07-23T08:47:55;19.90;91.70
25074;DHT22;13066;52.042;5.648;2022-07-23T08:50:29;19.90;91.90
25074;DHT22;13066;52.042;5.648;2022-07-23T08:52:59;19.90;92.30
25074;DHT22;13066;52.042;5.648;2022-07-23T08:55:30;20.00;91.90
25074;DHT22;13066;52.042;5.648;2022-07-23T08:57:58;20.00;91.90
25074;DHT22;13066;52.042;5.648;2022-07-23T09:00:27;20.10;92.00
25074;DHT22;13066;52.042;5.648;2022-07-23T09:02:55;20.10;91.80
25074;DHT22;13066;52.042;5.648;2022-07-23T09:05:23;20.10;91.60
25074;DHT22;13066;52.042;5.648;2022-07-23T09:08:11;20.20;91.40
25074;DHT22;13066;52.042;5.648;2022-07-23T09:10:46;20.30;91.00
25074;DHT22;13066;52.042;5.648;2022-07-23T09:13:27;20.20;90.30
25074;DHT22;13066;52.042;5.648;2022-07-23T09:15:57;20.30;90.00
25074;DHT22;13066;52.042;5.648;2022-07-23T09:18:30;20.30;89.70
25074;DHT22;13066;52.042;5.648;2022-07-23T09:21:09;20.30;90.00
25074;DHT22;13066;52.042;5.648;2022-07-23T09:23:38;20.30;90.30
25074;DHT22;13066;52.042;5.648;2022-07-23T09:26:27;20.30;90.40
25074;DHT22;13066;52.042;5.648;2022-07-23T09:28:59;20.30;90.40
25074;DHT22;13066;52.042;5.648;2022-07-23T09:31:32;20.40;90.40
25074;DHT22;13066;52.042;5.648;2022-07-23T09:34:08;20.40;90.30
25074;DHT22;13066;52.042;5.648;2022-07-23T09:36:37;20.40;90.50
25074;DHT22;13066;52.042;5.648;2022-07-23T09:39:06;20.50;90.60
25074;DHT22;13066;52.042;5.648;2022-07-23T09:41:38;20.50;90.50
25074;DHT22;13066;52.042;5.648;2022-07-23T09:44:08;20.60;90.50
25074;DHT22;13066;52.042;5.648;2022-07-23T09:46:36;20.60;90.20
25074;DHT22;13066;52.042;5.648;2022-07-23T09:49:19;20.70;90.00
25074;DHT22;13066;52.042;5.648;2022-07-23T09:51:51;20.70;90.00
25074;DHT22;13066;52.042;5.648;2022-07-23T09:54:26;20.80;88.90
25074;DHT22;13066;52.042;5.648;2022-07-23T09:56:58;20.80;88.30
25074;DHT22;13066;52.042;5.648;2022-07-23T09:59:28;20.90;88.40
25074;DHT22;13066;52.042;5.648;2022-07-23T10:01:57;21.00;88.20
25074;DHT22;13066;52.042;5.648;2022-07-23T10:04:28;21.00;88.10
25074;DHT22;13066;52.042;5.648;2022-07-23T10:06:57;21.10;88.30
25074;DHT22;13066;52.042;5.648;2022-07-23T10:09:29;21.20;87.30
25074;DHT22;13066;52.042;5.648;2022-07-23T10:12:00;21.20;86.80
25074;DHT22;13066;52.042;5.648;2022-07-23T10:14:39;21.20;86.60
25074;DHT22;13066;52.042;5.648;2022-07-23T10:17:07;21.20;86.20
25074;DHT22;13066;52.042;5.648;2022-07-23T10:19:36;21.30;86.10
25074;DHT22;13066;52.042;5.648;2022-07-23T10:22:06;21.30;85.30
25074;DHT22;13066;52.042;5.648;2022-07-23T10:24:46;21.40;84.00
25074;DHT22;13066;52.042;5.648;2022-07-23T10:27:37;21.40;82.70
25074;DHT22;13066;52.042;5.648;2022-07-23T10:30:10;21.50;82.30
25074;DHT22;13066;52.042;5.648;2022-07-23T10:32:45;21.50;82.30
25074;DHT22;13066;52.042;5.648;2022-07-23T10:35:22;21.50;82.60
25074;DHT22;13066;52.042;5.648;2022-07-23T10:37:56;21.60;82.70
25074;DHT22;13066;52.042;5.648;2022-07-23T10:40:24;21.60;82.80
25074;DHT22;13066;52.042;5.648;2022-07-23T10:42:59;21.70;82.80
25074;DHT22;13066;52.042;5.648;2022-07-23T10:45:31;21.70;82.80
25074;DHT22;13066;52.042;5.648;2022-07-23T10:48:14;21.80;82.90
25074;DHT22;13066;52.042;5.648;2022-07-23T10:50:43;21.90;82.60
25074;DHT22;13066;52.042;5.648;2022-07-23T10:53:14;22.00;82.30
25074;DHT22;13066;52.042;5.648;2022-07-23T10:55:53;22.10;82.30
25074;DHT22;13066;52.042;5.648;2022-07-23T10:58:47;22.10;82.30
25074;DHT22;13066;52.042;5.648;2022-07-23T11:01:32;22.20;82.00
25074;DHT22;13066;52.042;5.648;2022-07-23T11:04:02;22.20;81.90
25074;DHT22;13066;52.042;5.648;2022-07-23T11:07:07;22.20;81.90
25074;DHT22;13066;52.042;5.648;2022-07-23T11:09:40;22.30;81.30
25074;DHT22;13066;52.042;5.648;2022-07-23T11:12:38;22.30;81.10
25074;DHT22;13066;52.042;5.648;2022-07-23T11:15:09;22.50;81.40
25074;DHT22;13066;52.042;5.648;2022-07-23T11:17:58;22.50;80.00
25074;DHT22;13066;52.042;5.648;2022-07-23T11:20:27;22.50;79.10
25074;DHT22;13066;52.042;5.648;2022-07-23T11:22:56;22.50;77.80
25074;DHT22;13066;52.042;5.648;2022-07-23T11:25:36;22.50;77.00
25074;DHT22;13066;52.042;5.648;2022-07-23T11:28:10;22.60;77.80
25074;DHT22;13066;52.042;5.648;2022-07-23T11:30:40;22.60;76.90
25074;DHT22;13066;52.042;5.648;2022-07-23T11:33:20;22.60;76.90
25074;DHT22;13066;52.042;5.648;2022-07-23T11:36:01;22.60;77.30
25074;DHT22;13066;52.042;5.648;2022-07-23T11:38:31;22.70;76.80
25074;DHT22;13066;52.042;5.648;2022-07-23T11:41:00;22.70;75.70
25074;DHT22;13066;52.042;5.648;2022-07-23T11:43:28;22.80;74.90
25074;DHT22;13066;52.042;5.648;2022-07-23T11:45:59;22.80;76.00
25074;DHT22;13066;52.042;5.648;2022-07-23T11:48:29;22.90;75.90
25074;DHT22;13066;52.042;5.648;2022-07-23T11:50:58;22.90;75.60
25074;DHT22;13066;52.042;5.648;2022-07-23T11:53:28;23.00;75.70
25074;DHT22;13066;52.042;5.648;2022-07-23T11:56:03;23.10;75.00
25074;DHT22;13066;52.042;5.648;2022-07-23T11:58:31;23.10;74.40
25074;DHT22;13066;52.042;5.648;2022-07-23T12:01:01;23.10;75.60
25074;DHT22;13066;52.042;5.648;2022-07-23T12:03:29;23.20;76.50
25074;DHT22;13066;52.042;5.648;2022-07-23T12:05:59;23.30;75.90
25074;DHT22;13066;52.042;5.648;2022-07-23T12:08:27;23.40;76.00
25074;DHT22;13066;52.042;5.648;2022-07-23T12:10:56;23.50;75.00
25074;DHT22;13066;52.042;5.648;2022-07-23T12:13:24;23.50;74.40
25074;DHT22;13066;52.042;5.648;2022-07-23T12:15:54;23.60;74.50
25074;DHT22;13066;52.042;5.648;2022-07-23T12:18:27;23.60;74.60
25074;DHT22;13066;52.042;5.648;2022-07-23T12:20:57;23.70;74.60
25074;DHT22;13066;52.042;5.648;2022-07-23T12:23:27;23.80;74.20
25074;DHT22;13066;52.042;5.648;2022-07-23T12:26:01;23.80;73.70
25074;DHT22;13066;52.042;5.648;2022-07-23T12:28:30;23.80;73.00
25074;DHT22;13066;52.042;5.648;2022-07-23T12:30:59;23.80;73.40
25074;DHT22;13066;52.042;5.648;2022-07-23T12:33:30;23.90;72.90
25074;DHT22;13066;52.042;5.648;2022-07-23T12:36:00;24.00;72.20
25074;DHT22;13066;52.042;5.648;2022-07-23T12:38:37;24.00;72.10
25074;DHT22;13066;52.042;5.648;2022-07-23T12:41:05;24.00;71.90
25074;DHT22;13066;52.042;5.648;2022-07-23T12:43:36;24.10;71.30
25074;DHT22;13066;52.042;5.648;2022-07-23T12:46:06;24.20;71.30
25074;DHT22;13066;52.042;5.648;2022-07-23T12:48:38;24.20;71.30
25074;DHT22;13066;52.042;5.648;2022-07-23T12:51:07;24.30;71.50
25074;DHT22;13066;52.042;5.648;2022-07-23T12:53:45;24.30;71.00
25074;DHT22;13066;52.042;5.648;2022-07-23T12:56:16;24.30;71.70
25074;DHT22;13066;52.042;5.648;2022-07-23T12:58:48;24.40;71.60
25074;DHT22;13066;52.042;5.648;2022-07-23T13:01:26;24.40;70.60
25074;DHT22;13066;52.042;5.648;2022-07-23T13:03:58;24.50;70.60
25074;DHT22;13066;52.042;5.648;2022-07-23T13:06:28;24.50;70.50
25074;DHT22;13066;52.042;5.648;2022-07-23T13:08:57;24.60;70.20
25074;DHT22;13066;52.042;5.648;2022-07-23T13:11:27;24.60;69.70
25074;DHT22;13066;52.042;5.648;2022-07-23T13:13:56;24.60;69.70
25074;DHT22;13066;52.042;5.648;2022-07-23T13:16:27;24.60;69.50
25074;DHT22;13066;52.042;5.648;2022-07-23T13:18:57;24.60;69.30
25074;DHT22;13066;52.042;5.648;2022-07-23T13:21:25;24.70;69.40
25074;DHT22;13066;52.042;5.648;2022-07-23T13:23:54;24.70;69.40
25074;DHT22;13066;52.042;5.648;2022-07-23T13:26:23;24.70;68.50
25074;DHT22;13066;52.042;5.648;2022-07-23T13:28:52;24.70;68.80
25074;DHT22;13066;52.042;5.648;2022-07-23T13:31:21;24.70;69.60
25074;DHT22;13066;52.042;5.648;2022-07-23T13:33:50;24.70;70.10
25074;DHT22;13066;52.042;5.648;2022-07-23T13:36:20;24.70;69.40
25074;DHT22;13066;52.042;5.648;2022-07-23T13:38:48;24.70;68.90
25074;DHT22;13066;52.042;5.648;2022-07-23T13:41:16;24.80;68.50
25074;DHT22;13066;52.042;5.648;2022-07-23T13:43:45;24.80;68.90
25074;DHT22;13066;52.042;5.648;2022-07-23T13:46:13;24.80;69.00
25074;DHT22;13066;52.042;5.648;2022-07-23T13:48:42;24.80;68.40
25074;DHT22;13066;52.042;5.648;2022-07-23T13:51:10;24.90;68.10
25074;DHT22;13066;52.042;5.648;2022-07-23T13:53:39;24.90;68.40
25074;DHT22;13066;52.042;5.648;2022-07-23T13:56:08;24.90;68.50
25074;DHT22;13066;52.042;5.648;2022-07-23T13:58:37;25.10;68.70
25074;DHT22;13066;52.042;5.648;2022-07-23T14:01:07;25.20;68.40
25074;DHT22;13066;52.042;5.648;2022-07-23T14:03:36;25.30;68.10
25074;DHT22;13066;52.042;5.648;2022-07-23T14:06:05;25.40;68.20
25074;DHT22;13066;52.042;5.648;2022-07-23T14:08:43;25.60;67.60
25074;DHT22;13066;52.042;5.648;2022-07-23T14:11:13;25.70;67.00
25074;DHT22;13066;52.042;5.648;2022-07-23T14:13:41;25.80;66.30
25074;DHT22;13066;52.042;5.648;2022-07-23T14:16:09;25.90;65.50
25074;DHT22;13066;52.042;5.648;2022-07-23T14:18:37;26.00;65.00
25074;DHT22;13066;52.042;5.648;2022-07-23T14:21:06;26.20;64.70
25074;DHT22;13066;52.042;5.648;2022-07-23T14:23:35;26.30;64.70
25074;DHT22;13066;52.042;5.648;2022-07-23T14:26:06;26.50;65.10
25074;DHT22;13066;52.042;5.648;2022-07-23T14:28:35;26.50;62.90
25074;DHT22;13066;52.042;5.648;2022-07-23T14:31:06;26.60;62.60
25074;DHT22;13066;52.042;5.648;2022-07-23T14:33:47;26.70;62.10
25074;DHT22;13066;52.042;5.648;2022-07-23T14:36:16;26.80;62.30
25074;DHT22;13066;52.042;5.648;2022-07-23T14:38:44;26.80;62.30
25074;DHT22;13066;52.042;5.648;2022-07-23T14:41:14;26.80;61.90
25074;DHT22;13066;52.042;5.648;2022-07-23T14:43:42;26.80;61.00
25074;DHT22;13066;52.042;5.648;2022-07-23T14:46:12;26.80;60.80
25074;DHT22;13066;52.042;5.648;2022-07-23T14:48:40;26.80;60.40
25074;DHT22;13066;52.042;5.648;2022-07-23T14:51:09;26.80;60.30
25074;DHT22;13066;52.042;5.648;2022-07-23T14:53:38;26.70;59.80
25074;DHT22;13066;52.042;5.648;2022-07-23T14:56:06;26.70;59.80
25074;DHT22;13066;52.042;5.648;2022-07-23T14:58:36;26.70;60.20
25074;DHT22;13066;52.042;5.648;2022-07-23T15:01:04;26.70;60.20
25074;DHT22;13066;52.042;5.648;2022-07-23T15:03:33;26.70;60.20
25074;DHT22;13066;52.042;5.648;2022-07-23T15:06:09;26.70;60.10
25074;DHT22;13066;52.042;5.648;2022-07-23T15:08:38;26.70;60.10
25074;DHT22;13066;52.042;5.648;2022-07-23T15:11:07;26.70;59.90
25074;DHT22;13066;52.042;5.648;2022-07-23T15:13:38;26.60;59.80
25074;DHT22;13066;52.042;5.648;2022-07-23T15:16:08;26.60;59.70
25074;DHT22;13066;52.042;5.648;2022-07-23T15:18:36;26.60;59.50
25074;DHT22;13066;52.042;5.648;2022-07-23T15:21:05;26.60;59.30
25074;DHT22;13066;52.042;5.648;2022-07-23T15:23:34;26.50;59.10
25074;DHT22;13066;52.042;5.648;2022-07-23T15:26:05;26.60;59.10
25074;DHT22;13066;52.042;5.648;2022-07-23T15:28:34;26.60;58.80
25074;DHT22;13066;52.042;5.648;2022-07-23T15:31:04;26.60;58.70
25074;DHT22;13066;52.042;5.648;2022-07-23T15:33:35;26.60;58.60
25074;DHT22;13066;52.042;5.648;2022-07-23T15:36:04;26.60;58.60
25074;DHT22;13066;52.042;5.648;2022-07-23T15:38:33;26.60;58.60
25074;DHT22;13066;52.042;5.648;2022-07-23T15:41:01;26.60;58.40
25074;DHT22;13066;52.042;5.648;2022-07-23T15:43:29;26.60;58.10
25074;DHT22;13066;52.042;5.648;2022-07-23T15:45:58;26.70;57.80
25074;DHT22;13066;52.042;5.648;2022-07-23T15:48:27;26.70;57.60